sensor_id;sensor_type;location;lat;lon;timestamp;temperature;humidity
31677;DHT22;18385;51.572;6.578;2022-08-03T00:01:41;25.10;47.80
31677;DHT22;18385;51.572;6.578;2022-08-03T00:04:09;25.10;47.90
31677;DHT22;18385;51.572;6.578;2022-08-03T00:06:34;25.00;48.00
31677;DHT22;18385;51.572;6.578;2022-08-03T00:09:00;25.00;48.20
31677;DHT22;18385;51.572;6.578;2022-08-03T00:11:26;25.00;48.40
31677;DHT22;18385;51.572;6.578;2022-08-03T00:13:52;24.90;48.40
31677;DHT22;18385;51.572;6.578;2022-08-03T00:16:18;24.90;48.60
31677;DHT22;18385;51.572;6.578;2022-08-03T00:18:43;24.90;48.70
31677;DHT22;18385;51.572;6.578;2022-08-03T00:21:09;24.80;48.80
31677;DHT22;18385;51.572;6.578;2022-08-03T00:23:36;24.80;49.00
31677;DHT22;18385;51.572;6.578;2022-08-03T00:26:02;24.80;49.00
31677;DHT22;18385;51.572;6.578;2022-08-03T00:28:28;24.70;49.10
31677;DHT22;18385;51.572;6.578;2022-08-03T00:30:53;24.70;49.20
31677;DHT22;18385;51.572;6.578;2022-08-03T00:33:20;24.60;49.30
31677;DHT22;18385;51.572;6.578;2022-08-03T00:35:46;24.60;49.50
31677;DHT22;18385;51.572;6.578;2022-08-03T00:38:12;24.60;49.60
31677;DHT22;18385;51.572;6.578;2022-08-03T00:40:37;24.60;49.60
31677;DHT22;18385;51.572;6.578;2022-08-03T00:43:05;24.50;49.80
31677;DHT22;18385;51.572;6.578;2022-08-03T00:45:34;24.50;49.80
31677;DHT22;18385;51.572;6.578;2022-08-03T00:48:00;24.50;50.00
31677;DHT22;18385;51.572;6.578;2022-08-03T00:50:28;24.50;49.90
31677;DHT22;18385;51.572;6.578;2022-08-03T00:52:57;24.50;50.10
31677;DHT22;18385;51.572;6.578;2022-08-03T00:55:23;24.50;50.90
31677;DHT22;18385;51.572;6.578;2022-08-03T00:57:50;24.50;50.30
31677;DHT22;18385;51.572;6.578;2022-08-03T01:00:20;24.40;50.30
31677;DHT22;18385;51.572;6.578;2022-08-03T01:02:46;24.40;50.40
31677;DHT22;18385;51.572;6.578;2022-08-03T01:05:12;24.40;50.40
31677;DHT22;18385;51.572;6.578;2022-08-03T01:10:44;24.30;50.70
31677;DHT22;18385;51.572;6.578;2022-08-03T01:16:04;24.20;51.00
31677;DHT22;18385;51.572;6.578;2022-08-03T01:18:46;24.20;51.10
31677;DHT22;18385;51.572;6.578;2022-08-03T01:21:24;24.20;51.10
31677;DHT22;18385;51.572;6.578;2022-08-03T01:31:40;24.00;51.30
31677;DHT22;18385;51.572;6.578;2022-08-03T01:34:11;24.00;51.60
31677;DHT22;18385;51.572;6.578;2022-08-03T01:36:51;23.90;51.70
31677;DHT22;18385;51.572;6.578;2022-08-03T01:39:18;23.90;51.80
31677;DHT22;18385;51.572;6.578;2022-08-03T01:41:52;23.80;51.80
31677;DHT22;18385;51.572;6.578;2022-08-03T01:44:20;23.80;52.10
31677;DHT22;18385;51.572;6.578;2022-08-03T01:46:47;23.80;52.00
31677;DHT22;18385;51.572;6.578;2022-08-03T01:49:16;23.80;52.10
31677;DHT22;18385;51.572;6.578;2022-08-03T01:51:44;23.70;52.20
31677;DHT22;18385;51.572;6.578;2022-08-03T01:54:12;23.70;52.30
31677;DHT22;18385;51.572;6.578;2022-08-03T01:56:39;23.70;52.30
31677;DHT22;18385;51.572;6.578;2022-08-03T01:59:06;23.60;52.50
31677;DHT22;18385;51.572;6.578;2022-08-03T02:01:34;23.60;52.60
31677;DHT22;18385;51.572;6.578;2022-08-03T02:04:02;23.60;52.70
31677;DHT22;18385;51.572;6.578;2022-08-03T02:06:30;23.60;52.80
31677;DHT22;18385;51.572;6.578;2022-08-03T02:08:58;23.60;52.90
31677;DHT22;18385;51.572;6.578;2022-08-03T02:11:25;23.50;52.90
31677;DHT22;18385;51.572;6.578;2022-08-03T02:13:52;23.50;53.60
31677;DHT22;18385;51.572;6.578;2022-08-03T02:16:20;23.50;53.00
31677;DHT22;18385;51.572;6.578;2022-08-03T02:18:47;23.50;53.20
31677;DHT22;18385;51.572;6.578;2022-08-03T02:21:14;23.50;53.30
31677;DHT22;18385;51.572;6.578;2022-08-03T02:23:40;23.50;53.40
31677;DHT22;18385;51.572;6.578;2022-08-03T02:26:10;23.50;53.40
31677;DHT22;18385;51.572;6.578;2022-08-03T02:28:40;23.50;53.60
31677;DHT22;18385;51.572;6.578;2022-08-03T02:31:14;23.50;53.60
31677;DHT22;18385;51.572;6.578;2022-08-03T02:33:53;23.50;53.70
31677;DHT22;18385;51.572;6.578;2022-08-03T02:36:21;23.40;53.70
31677;DHT22;18385;51.572;6.578;2022-08-03T02:38:51;23.40;53.30
31677;DHT22;18385;51.572;6.578;2022-08-03T02:41:22;23.20;53.90
31677;DHT22;18385;51.572;6.578;2022-08-03T02:43:52;23.20;54.00
31677;DHT22;18385;51.572;6.578;2022-08-03T02:46:22;23.20;54.10
31677;DHT22;18385;51.572;6.578;2022-08-03T02:48:51;23.20;54.20
31677;DHT22;18385;51.572;6.578;2022-08-03T02:51:18;23.20;54.30
31677;DHT22;18385;51.572;6.578;2022-08-03T02:53:46;23.20;54.30
31677;DHT22;18385;51.572;6.578;2022-08-03T02:56:12;23.20;54.30
31677;DHT22;18385;51.572;6.578;2022-08-03T02:58:41;23.10;54.40
31677;DHT22;18385;51.572;6.578;2022-08-03T03:01:09;23.10;54.60
31677;DHT22;18385;51.572;6.578;2022-08-03T03:03:35;23.10;54.70
31677;DHT22;18385;51.572;6.578;2022-08-03T03:06:03;23.00;54.80
31677;DHT22;18385;51.572;6.578;2022-08-03T03:08:30;23.00;54.90
31677;DHT22;18385;51.572;6.578;2022-08-03T03:10:58;23.00;55.00
31677;DHT22;18385;51.572;6.578;2022-08-03T03:13:24;23.00;55.10
31677;DHT22;18385;51.572;6.578;2022-08-03T03:15:51;22.90;55.10
31677;DHT22;18385;51.572;6.578;2022-08-03T03:18:20;22.90;55.20
31677;DHT22;18385;51.572;6.578;2022-08-03T03:20:46;22.90;55.40
31677;DHT22;18385;51.572;6.578;2022-08-03T03:23:13;22.90;55.40
31677;DHT22;18385;51.572;6.578;2022-08-03T03:25:40;22.90;55.50
31677;DHT22;18385;51.572;6.578;2022-08-03T03:28:06;22.90;55.50
31677;DHT22;18385;51.572;6.578;2022-08-03T03:30:32;22.90;55.60
31677;DHT22;18385;51.572;6.578;2022-08-03T03:32:58;22.90;55.70
31677;DHT22;18385;51.572;6.578;2022-08-03T03:35:25;22.90;55.80
31677;DHT22;18385;51.572;6.578;2022-08-03T03:37:52;22.90;55.80
31677;DHT22;18385;51.572;6.578;2022-08-03T03:40:17;22.80;55.80
31677;DHT22;18385;51.572;6.578;2022-08-03T03:42:43;22.80;55.90
31677;DHT22;18385;51.572;6.578;2022-08-03T03:45:10;22.80;56.00
31677;DHT22;18385;51.572;6.578;2022-08-03T03:47:36;22.80;56.00
31677;DHT22;18385;51.572;6.578;2022-08-03T03:50:03;22.80;56.10
31677;DHT22;18385;51.572;6.578;2022-08-03T03:52:31;22.80;56.20
31677;DHT22;18385;51.572;6.578;2022-08-03T03:54:57;22.70;56.30
31677;DHT22;18385;51.572;6.578;2022-08-03T03:57:23;22.70;56.30
31677;DHT22;18385;51.572;6.578;2022-08-03T03:59:49;22.80;56.40
31677;DHT22;18385;51.572;6.578;2022-08-03T04:02:15;22.70;56.50
31677;DHT22;18385;51.572;6.578;2022-08-03T04:04:40;22.70;56.50
31677;DHT22;18385;51.572;6.578;2022-08-03T04:07:26;22.70;56.50
31677;DHT22;18385;51.572;6.578;2022-08-03T04:10:20;22.70;56.60
31677;DHT22;18385;51.572;6.578;2022-08-03T04:13:09;22.70;56.80
31677;DHT22;18385;51.572;6.578;2022-08-03T04:15:38;22.60;56.80
31677;DHT22;18385;51.572;6.578;2022-08-03T04:18:06;22.60;56.90
31677;DHT22;18385;51.572;6.578;2022-08-03T04:20:34;22.70;56.90
31677;DHT22;18385;51.572;6.578;2022-08-03T04:23:02;22.70;56.90
31677;DHT22;18385;51.572;6.578;2022-08-03T04:25:32;22.70;57.00
31677;DHT22;18385;51.572;6.578;2022-08-03T04:28:03;22.70;57.10
31677;DHT22;18385;51.572;6.578;2022-08-03T04:30:30;22.80;57.10
31677;DHT22;18385;51.572;6.578;2022-08-03T04:32:58;22.80;57.00
31677;DHT22;18385;51.572;6.578;2022-08-03T04:35:29;22.80;56.90
31677;DHT22;18385;51.572;6.578;2022-08-03T04:38:02;22.80;57.00
31677;DHT22;18385;51.572;6.578;2022-08-03T04:40:36;22.90;57.10
31677;DHT22;18385;51.572;6.578;2022-08-03T04:43:04;22.90;57.10
31677;DHT22;18385;51.572;6.578;2022-08-03T04:45:33;22.90;57.00
31677;DHT22;18385;51.572;6.578;2022-08-03T04:47:59;23.00;57.10
31677;DHT22;18385;51.572;6.578;2022-08-03T04:50:25;23.10;57.10
31677;DHT22;18385;51.572;6.578;2022-08-03T04:53:07;23.10;57.00
31677;DHT22;18385;51.572;6.578;2022-08-03T04:55:34;23.10;56.90
31677;DHT22;18385;51.572;6.578;2022-08-03T04:58:01;23.20;56.90
31677;DHT22;18385;51.572;6.578;2022-08-03T05:00:27;23.30;57.00
31677;DHT22;18385;51.572;6.578;2022-08-03T05:02:53;23.30;56.90
31677;DHT22;18385;51.572;6.578;2022-08-03T05:05:21;23.40;56.80
31677;DHT22;18385;51.572;6.578;2022-08-03T05:07:47;23.40;56.80
31677;DHT22;18385;51.572;6.578;2022-08-03T05:10:13;23.50;56.70
31677;DHT22;18385;51.572;6.578;2022-08-03T05:12:39;23.50;56.70
31677;DHT22;18385;51.572;6.578;2022-08-03T05:15:05;23.60;56.60
31677;DHT22;18385;51.572;6.578;2022-08-03T05:17:32;23.60;56.60
31677;DHT22;18385;51.572;6.578;2022-08-03T05:20:01;23.70;56.70
31677;DHT22;18385;51.572;6.578;2022-08-03T05:22:28;23.70;56.70
31677;DHT22;18385;51.572;6.578;2022-08-03T05:24:54;23.70;56.60
31677;DHT22;18385;51.572;6.578;2022-08-03T05:27:20;23.70;56.60
31677;DHT22;18385;51.572;6.578;2022-08-03T05:29:49;23.80;56.60
31677;DHT22;18385;51.572;6.578;2022-08-03T05:32:15;23.80;56.60
31677;DHT22;18385;51.572;6.578;2022-08-03T05:34:44;23.80;56.40
31677;DHT22;18385;51.572;6.578;2022-08-03T05:37:09;23.80;56.50
31677;DHT22;18385;51.572;6.578;2022-08-03T05:39:35;23.90;56.50
31677;DHT22;18385;51.572;6.578;2022-08-03T05:42:02;24.00;56.40
31677;DHT22;18385;51.572;6.578;2022-08-03T05:44:28;24.00;56.40
31677;DHT22;18385;51.572;6.578;2022-08-03T05:46:55;24.10;56.40
31677;DHT22;18385;51.572;6.578;2022-08-03T05:49:21;24.20;56.30
31677;DHT22;18385;51.572;6.578;2022-08-03T05:51:46;24.20;56.30
31677;DHT22;18385;51.572;6.578;2022-08-03T05:54:12;24.30;56.20
31677;DHT22;18385;51.572;6.578;2022-08-03T05:56:38;24.30;56.20
31677;DHT22;18385;51.572;6.578;2022-08-03T05:59:07;24.40;56.20
31677;DHT22;18385;51.572;6.578;2022-08-03T06:01:32;24.50;56.10
31677;DHT22;18385;51.572;6.578;2022-08-03T06:03:58;24.50;56.10
31677;DHT22;18385;51.572;6.578;2022-08-03T06:06:24;24.60;56.00
31677;DHT22;18385;51.572;6.578;2022-08-03T06:08:50;24.60;55.90
31677;DHT22;18385;51.572;6.578;2022-08-03T06:11:16;24.80;56.00
31677;DHT22;18385;51.572;6.578;2022-08-03T06:13:42;24.80;55.80
31677;DHT22;18385;51.572;6.578;2022-08-03T06:16:08;24.90;55.90
31677;DHT22;18385;51.572;6.578;2022-08-03T06:18:35;24.90;55.90
31677;DHT22;18385;51.572;6.578;2022-08-03T06:21:01;25.00;55.80
31677;DHT22;18385;51.572;6.578;2022-08-03T06:23:27;25.10;55.80
31677;DHT22;18385;51.572;6.578;2022-08-03T06:25:52;25.20;55.80
31677;DHT22;18385;51.572;6.578;2022-08-03T06:28:18;25.30;55.70
31677;DHT22;18385;51.572;6.578;2022-08-03T06:30:44;25.30;55.50
31677;DHT22;18385;51.572;6.578;2022-08-03T06:33:10;25.40;55.60
31677;DHT22;18385;51.572;6.578;2022-08-03T06:35:36;25.40;55.50
31677;DHT22;18385;51.572;6.578;2022-08-03T06:38:01;25.40;55.40
31677;DHT22;18385;51.572;6.578;2022-08-03T06:40:28;25.50;55.40
31677;DHT22;18385;51.572;6.578;2022-08-03T06:43:00;25.50;55.40
31677;DHT22;18385;51.572;6.578;2022-08-03T06:45:27;25.60;55.30
31677;DHT22;18385;51.572;6.578;2022-08-03T06:48:10;25.60;55.30
31677;DHT22;18385;51.572;6.578;2022-08-03T06:50:37;25.70;55.20
31677;DHT22;18385;51.572;6.578;2022-08-03T06:53:04;25.70;55.20
31677;DHT22;18385;51.572;6.578;2022-08-03T06:55:30;25.80;55.10
31677;DHT22;18385;51.572;6.578;2022-08-03T06:57:57;25.90;55.10
31677;DHT22;18385;51.572;6.578;2022-08-03T07:00:23;26.00;55.20
31677;DHT22;18385;51.572;6.578;2022-08-03T07:02:49;26.00;55.00
31677;DHT22;18385;51.572;6.578;2022-08-03T07:05:15;26.10;55.00
31677;DHT22;18385;51.572;6.578;2022-08-03T07:07:42;26.20;55.00
31677;DHT22;18385;51.572;6.578;2022-08-03T07:10:08;26.20;54.70
31677;DHT22;18385;51.572;6.578;2022-08-03T07:12:34;26.30;54.70
31677;DHT22;18385;51.572;6.578;2022-08-03T07:15:01;26.40;54.60
31677;DHT22;18385;51.572;6.578;2022-08-03T07:17:28;26.50;54.60
31677;DHT22;18385;51.572;6.578;2022-08-03T07:19:54;26.60;54.60
31677;DHT22;18385;51.572;6.578;2022-08-03T07:22:19;26.70;54.30
31677;DHT22;18385;51.572;6.578;2022-08-03T07:24:45;26.80;54.20
31677;DHT22;18385;51.572;6.578;2022-08-03T07:27:12;26.80;54.10
31677;DHT22;18385;51.572;6.578;2022-08-03T07:29:37;26.90;54.00
31677;DHT22;18385;51.572;6.578;2022-08-03T07:32:04;27.00;53.90
31677;DHT22;18385;51.572;6.578;2022-08-03T07:34:30;27.10;53.90
31677;DHT22;18385;51.572;6.578;2022-08-03T07:36:56;27.20;53.80
31677;DHT22;18385;51.572;6.578;2022-08-03T07:39:22;27.30;53.60
31677;DHT22;18385;51.572;6.578;2022-08-03T07:41:48;27.40;53.50
31677;DHT22;18385;51.572;6.578;2022-08-03T07:44:16;27.50;53.30
31677;DHT22;18385;51.572;6.578;2022-08-03T07:46:42;27.60;53.20
31677;DHT22;18385;51.572;6.578;2022-08-03T07:49:08;27.70;53.20
31677;DHT22;18385;51.572;6.578;2022-08-03T07:51:33;27.80;53.00
31677;DHT22;18385;51.572;6.578;2022-08-03T07:53:59;27.90;52.80
31677;DHT22;18385;51.572;6.578;2022-08-03T07:56:26;27.90;52.60
31677;DHT22;18385;51.572;6.578;2022-08-03T07:58:52;27.90;52.60
31677;DHT22;18385;51.572;6.578;2022-08-03T08:01:18;28.00;52.50
31677;DHT22;18385;51.572;6.578;2022-08-03T08:03:45;28.00;52.30
31677;DHT22;18385;51.572;6.578;2022-08-03T08:06:11;28.10;52.20
31677;DHT22;18385;51.572;6.578;2022-08-03T08:08:40;28.20;52.10
31677;DHT22;18385;51.572;6.578;2022-08-03T08:11:05;28.30;51.90
31677;DHT22;18385;51.572;6.578;2022-08-03T08:13:34;28.40;52.30
31677;DHT22;18385;51.572;6.578;2022-08-03T08:16:02;28.30;51.70
31677;DHT22;18385;51.572;6.578;2022-08-03T08:18:28;28.30;51.50
31677;DHT22;18385;51.572;6.578;2022-08-03T08:20:57;28.30;51.60
31677;DHT22;18385;51.572;6.578;2022-08-03T08:23:23;28.40;51.60
31677;DHT22;18385;51.572;6.578;2022-08-03T08:25:52;28.40;51.40
31677;DHT22;18385;51.572;6.578;2022-08-03T08:28:18;28.50;51.20
31677;DHT22;18385;51.572;6.578;2022-08-03T08:30:44;28.50;51.10
31677;DHT22;18385;51.572;6.578;2022-08-03T08:33:10;28.50;51.00
31677;DHT22;18385;51.572;6.578;2022-08-03T08:35:36;28.50;51.00
31677;DHT22;18385;51.572;6.578;2022-08-03T08:38:01;28.60;50.90
31677;DHT22;18385;51.572;6.578;2022-08-03T08:40:27;28.70;51.50
31677;DHT22;18385;51.572;6.578;2022-08-03T08:42:53;28.80;50.80
31677;DHT22;18385;51.572;6.578;2022-08-03T08:45:19;28.90;50.60
31677;DHT22;18385;51.572;6.578;2022-08-03T08:47:47;28.90;50.40
31677;DHT22;18385;51.572;6.578;2022-08-03T08:50:18;29.00;50.10
31677;DHT22;18385;51.572;6.578;2022-08-03T08:52:45;29.00;49.90
31677;DHT22;18385;51.572;6.578;2022-08-03T08:55:13;29.00;49.70
31677;DHT22;18385;51.572;6.578;2022-08-03T08:57:54;29.20;50.10
31677;DHT22;18385;51.572;6.578;2022-08-03T09:00:22;29.20;49.20
31677;DHT22;18385;51.572;6.578;2022-08-03T09:02:47;29.40;49.20
31677;DHT22;18385;51.572;6.578;2022-08-03T09:05:17;29.40;48.90
31677;DHT22;18385;51.572;6.578;2022-08-03T09:07:45;29.40;48.60
31677;DHT22;18385;51.572;6.578;2022-08-03T09:10:13;29.50;48.50
31677;DHT22;18385;51.572;6.578;2022-08-03T09:12:44;29.50;48.30
31677;DHT22;18385;51.572;6.578;2022-08-03T09:15:20;29.60;48.10
31677;DHT22;18385;51.572;6.578;2022-08-03T09:17:46;29.60;47.90
31677;DHT22;18385;51.572;6.578;2022-08-03T09:20:12;29.70;48.00
31677;DHT22;18385;51.572;6.578;2022-08-03T09:22:58;29.80;47.80
31677;DHT22;18385;51.572;6.578;2022-08-03T09:25:38;29.80;47.60
31677;DHT22;18385;51.572;6.578;2022-08-03T09:28:12;29.90;47.50
31677;DHT22;18385;51.572;6.578;2022-08-03T09:30:40;29.90;47.20
31677;DHT22;18385;51.572;6.578;2022-08-03T09:33:11;29.90;47.20
31677;DHT22;18385;51.572;6.578;2022-08-03T09:35:45;29.90;47.10
31677;DHT22;18385;51.572;6.578;2022-08-03T09:38:24;30.00;47.00
31677;DHT22;18385;51.572;6.578;2022-08-03T09:40:54;30.00;46.80
31677;DHT22;18385;51.572;6.578;2022-08-03T09:43:20;30.00;46.60
31677;DHT22;18385;51.572;6.578;2022-08-03T09:45:46;30.10;46.70
31677;DHT22;18385;51.572;6.578;2022-08-03T09:48:28;30.10;46.40
31677;DHT22;18385;51.572;6.578;2022-08-03T09:50:58;30.20;46.20
31677;DHT22;18385;51.572;6.578;2022-08-03T09:53:25;30.20;46.00
31677;DHT22;18385;51.572;6.578;2022-08-03T09:58:17;30.40;46.00
31677;DHT22;18385;51.572;6.578;2022-08-03T10:00:59;30.50;45.70
31677;DHT22;18385;51.572;6.578;2022-08-03T10:03:27;30.60;45.30
31677;DHT22;18385;51.572;6.578;2022-08-03T10:05:54;30.60;45.20
31677;DHT22;18385;51.572;6.578;2022-08-03T10:08:20;30.60;45.70
31677;DHT22;18385;51.572;6.578;2022-08-03T10:10:48;30.70;45.00
31677;DHT22;18385;51.572;6.578;2022-08-03T10:13:16;30.70;44.80
31677;DHT22;18385;51.572;6.578;2022-08-03T10:15:43;30.80;44.60
31677;DHT22;18385;51.572;6.578;2022-08-03T10:18:08;30.80;44.50
31677;DHT22;18385;51.572;6.578;2022-08-03T10:20:37;30.90;44.40
31677;DHT22;18385;51.572;6.578;2022-08-03T10:23:07;30.90;44.10
31677;DHT22;18385;51.572;6.578;2022-08-03T10:25:36;31.00;44.10
31677;DHT22;18385;51.572;6.578;2022-08-03T10:28:03;31.10;44.00
31677;DHT22;18385;51.572;6.578;2022-08-03T10:30:32;31.10;44.40
31677;DHT22;18385;51.572;6.578;2022-08-03T10:33:02;31.20;43.70
31677;DHT22;18385;51.572;6.578;2022-08-03T10:35:29;31.20;43.60
31677;DHT22;18385;51.572;6.578;2022-08-03T10:38:05;31.30;43.30
31677;DHT22;18385;51.572;6.578;2022-08-03T10:40:33;31.30;43.10
31677;DHT22;18385;51.572;6.578;2022-08-03T10:43:11;31.40;43.00
31677;DHT22;18385;51.572;6.578;2022-08-03T10:45:41;31.40;42.80
31677;DHT22;18385;51.572;6.578;2022-08-03T10:48:08;31.60;42.70
31677;DHT22;18385;51.572;6.578;2022-08-03T10:50:34;31.60;42.40
31677;DHT22;18385;51.572;6.578;2022-08-03T10:53:05;31.70;42.30
31677;DHT22;18385;51.572;6.578;2022-08-03T10:55:44;31.80;42.10
31677;DHT22;18385;51.572;6.578;2022-08-03T10:58:53;31.90;42.00
31677;DHT22;18385;51.572;6.578;2022-08-03T11:04:19;31.80;41.90
31677;DHT22;18385;51.572;6.578;2022-08-03T11:06:46;31.80;41.50
31677;DHT22;18385;51.572;6.578;2022-08-03T11:09:13;31.80;41.20
31677;DHT22;18385;51.572;6.578;2022-08-03T11:11:41;31.80;41.30
31677;DHT22;18385;51.572;6.578;2022-08-03T11:14:20;31.90;41.20
31677;DHT22;18385;51.572;6.578;2022-08-03T11:16:50;31.90;41.00
31677;DHT22;18385;51.572;6.578;2022-08-03T11:19:48;32.00;41.00
31677;DHT22;18385;51.572;6.578;2022-08-03T11:22:15;32.10;40.40
31677;DHT22;18385;51.572;6.578;2022-08-03T11:35:17;32.40;39.50
31677;DHT22;18385;51.572;6.578;2022-08-03T11:40:48;32.30;39.20
31677;DHT22;18385;51.572;6.578;2022-08-03T11:48:36;32.70;38.50
31677;DHT22;18385;51.572;6.578;2022-08-03T11:51:04;32.90;38.20
31677;DHT22;18385;51.572;6.578;2022-08-03T11:53:30;32.90;37.60
31677;DHT22;18385;51.572;6.578;2022-08-03T11:55:59;32.90;37.60
31677;DHT22;18385;51.572;6.578;2022-08-03T11:58:25;33.00;37.40
31677;DHT22;18385;51.572;6.578;2022-08-03T12:00:51;33.10;37.20
31677;DHT22;18385;51.572;6.578;2022-08-03T12:03:18;33.20;37.10
31677;DHT22;18385;51.572;6.578;2022-08-03T12:05:49;33.20;36.80
31677;DHT22;18385;51.572;6.578;2022-08-03T12:08:36;33.30;36.60
31677;DHT22;18385;51.572;6.578;2022-08-03T12:11:03;33.50;36.80
31677;DHT22;18385;51.572;6.578;2022-08-03T12:13:40;33.60;36.30
31677;DHT22;18385;51.572;6.578;2022-08-03T12:16:06;33.70;35.80
31677;DHT22;18385;51.572;6.578;2022-08-03T12:18:32;33.80;35.90
31677;DHT22;18385;51.572;6.578;2022-08-03T12:21:09;33.80;35.40
31677;DHT22;18385;51.572;6.578;2022-08-03T12:23:36;33.90;35.20
31677;DHT22;18385;51.572;6.578;2022-08-03T12:26:04;33.90;34.90
31677;DHT22;18385;51.572;6.578;2022-08-03T12:28:30;33.90;34.80
31677;DHT22;18385;51.572;6.578;2022-08-03T12:31:00;33.80;34.70
31677;DHT22;18385;51.572;6.578;2022-08-03T12:33:27;34.00;34.40
31677;DHT22;18385;51.572;6.578;2022-08-03T12:36:09;34.20;34.20
31677;DHT22;18385;51.572;6.578;2022-08-03T12:38:37;34.30;34.10
31677;DHT22;18385;51.572;6.578;2022-08-03T12:41:07;34.50;33.80
31677;DHT22;18385;51.572;6.578;2022-08-03T12:43:36;34.70;33.90
31677;DHT22;18385;51.572;6.578;2022-08-03T12:48:33;34.90;33.00
31677;DHT22;18385;51.572;6.578;2022-08-03T12:51:11;35.00;33.20
31677;DHT22;18385;51.572;6.578;2022-08-03T12:53:37;35.10;32.80
31677;DHT22;18385;51.572;6.578;2022-08-03T12:56:04;35.40;32.50
31677;DHT22;18385;51.572;6.578;2022-08-03T12:58:34;35.60;32.00
31677;DHT22;18385;51.572;6.578;2022-08-03T13:01:01;35.80;31.80
31677;DHT22;18385;51.572;6.578;2022-08-03T13:03:27;35.80;30.90
31677;DHT22;18385;51.572;6.578;2022-08-03T13:05:53;35.80;31.10
31677;DHT22;18385;51.572;6.578;2022-08-03T13:08:21;35.70;30.80
31677;DHT22;18385;51.572;6.578;2022-08-03T13:10:47;35.60;30.60
31677;DHT22;18385;51.572;6.578;2022-08-03T13:13:13;35.70;30.80
31677;DHT22;18385;51.572;6.578;2022-08-03T13:15:39;35.90;31.00
31677;DHT22;18385;51.572;6.578;2022-08-03T13:18:05;36.00;30.30
31677;DHT22;18385;51.572;6.578;2022-08-03T13:20:31;36.20;30.40
31677;DHT22;18385;51.572;6.578;2022-08-03T13:22:58;36.50;30.20
31677;DHT22;18385;51.572;6.578;2022-08-03T13:25:24;36.70;29.70
31677;DHT22;18385;51.572;6.578;2022-08-03T13:27:49;37.30;29.90
31677;DHT22;18385;51.572;6.578;2022-08-03T13:30:17;38.00;29.50
31677;DHT22;18385;51.572;6.578;2022-08-03T13:32:43;38.60;29.40
31677;DHT22;18385;51.572;6.578;2022-08-03T13:35:10;39.20;29.10
31677;DHT22;18385;51.572;6.578;2022-08-03T13:37:36;39.60;28.40
31677;DHT22;18385;51.572;6.578;2022-08-03T13:40:04;39.80;28.10
31677;DHT22;18385;51.572;6.578;2022-08-03T13:42:33;39.80;27.80
31677;DHT22;18385;51.572;6.578;2022-08-03T13:44:59;40.00;27.70
31677;DHT22;18385;51.572;6.578;2022-08-03T13:47:26;40.10;27.50
31677;DHT22;18385;51.572;6.578;2022-08-03T13:49:52;40.40;27.40
31677;DHT22;18385;51.572;6.578;2022-08-03T13:52:18;40.50;27.00
31677;DHT22;18385;51.572;6.578;2022-08-03T13:54:44;40.60;26.70
31677;DHT22;18385;51.572;6.578;2022-08-03T13:57:10;40.50;26.50
31677;DHT22;18385;51.572;6.578;2022-08-03T13:59:36;40.60;26.80
31677;DHT22;18385;51.572;6.578;2022-08-03T14:02:02;41.10;26.60
31677;DHT22;18385;51.572;6.578;2022-08-03T14:04:28;41.60;26.00
31677;DHT22;18385;51.572;6.578;2022-08-03T14:06:54;42.10;25.70
31677;DHT22;18385;51.572;6.578;2022-08-03T14:09:20;42.50;25.00
31677;DHT22;18385;51.572;6.578;2022-08-03T14:11:46;42.10;24.40
31677;DHT22;18385;51.572;6.578;2022-08-03T14:14:12;42.00;24.60
31677;DHT22;18385;51.572;6.578;2022-08-03T14:16:37;42.20;24.90
31677;DHT22;18385;51.572;6.578;2022-08-03T14:19:04;42.40;24.30
31677;DHT22;18385;51.572;6.578;2022-08-03T14:21:30;42.30;24.10
31677;DHT22;18385;51.572;6.578;2022-08-03T14:23:57;42.20;23.80
31677;DHT22;18385;51.572;6.578;2022-08-03T14:26:22;41.90;23.50
31677;DHT22;18385;51.572;6.578;2022-08-03T14:28:48;42.10;23.90
31677;DHT22;18385;51.572;6.578;2022-08-03T14:31:14;42.30;23.60
31677;DHT22;18385;51.572;6.578;2022-08-03T14:33:39;42.30;23.30
31677;DHT22;18385;51.572;6.578;2022-08-03T14:36:05;42.40;23.40
31677;DHT22;18385;51.572;6.578;2022-08-03T14:38:31;42.70;23.10
31677;DHT22;18385;51.572;6.578;2022-08-03T14:40:56;43.00;23.10
31677;DHT22;18385;51.572;6.578;2022-08-03T14:43:22;43.60;23.00
31677;DHT22;18385;51.572;6.578;2022-08-03T14:45:52;44.20;22.80
31677;DHT22;18385;51.572;6.578;2022-08-03T14:48:19;44.70;22.20
31677;DHT22;18385;51.572;6.578;2022-08-03T14:50:45;45.20;22.10
31677;DHT22;18385;51.572;6.578;2022-08-03T14:53:10;45.50;21.60
31677;DHT22;18385;51.572;6.578;2022-08-03T14:55:36;45.50;21.50
31677;DHT22;18385;51.572;6.578;2022-08-03T14:58:02;45.40;21.20
31677;DHT22;18385;51.572;6.578;2022-08-03T15:00:30;45.50;21.40
31677;DHT22;18385;51.572;6.578;2022-08-03T15:02:56;45.80;22.10
31677;DHT22;18385;51.572;6.578;2022-08-03T15:05:21;46.20;21.20
31677;DHT22;18385;51.572;6.578;2022-08-03T15:07:47;46.20;20.50
31677;DHT22;18385;51.572;6.578;2022-08-03T15:10:13;45.60;20.20
31677;DHT22;18385;51.572;6.578;2022-08-03T15:12:39;45.30;20.60
31677;DHT22;18385;51.572;6.578;2022-08-03T15:15:05;45.10;20.50
31677;DHT22;18385;51.572;6.578;2022-08-03T15:17:30;43.90;20.10
31677;DHT22;18385;51.572;6.578;2022-08-03T15:19:56;42.30;20.70
31677;DHT22;18385;51.572;6.578;2022-08-03T15:22:22;42.30;22.40
31677;DHT22;18385;51.572;6.578;2022-08-03T15:25:03;42.80;21.90
31677;DHT22;18385;51.572;6.578;2022-08-03T15:27:29;43.50;21.50
31677;DHT22;18385;51.572;6.578;2022-08-03T15:29:55;43.50;21.10
31677;DHT22;18385;51.572;6.578;2022-08-03T15:32:20;44.00;21.50
31677;DHT22;18385;51.572;6.578;2022-08-03T15:34:46;44.70;21.30
31677;DHT22;18385;51.572;6.578;2022-08-03T15:37:12;45.30;20.90
31677;DHT22;18385;51.572;6.578;2022-08-03T15:39:38;45.10;20.70
31677;DHT22;18385;51.572;6.578;2022-08-03T15:42:04;45.20;20.90
31677;DHT22;18385;51.572;6.578;2022-08-03T15:44:29;45.10;20.40
31677;DHT22;18385;51.572;6.578;2022-08-03T15:46:55;45.00;20.60
31677;DHT22;18385;51.572;6.578;2022-08-03T15:49:21;45.30;20.90
31677;DHT22;18385;51.572;6.578;2022-08-03T15:51:47;45.30;20.70
31677;DHT22;18385;51.572;6.578;2022-08-03T15:54:12;45.80;20.80
31677;DHT22;18385;51.572;6.578;2022-08-03T15:56:38;46.60;20.50
31677;DHT22;18385;51.572;6.578;2022-08-03T15:59:06;47.00;20.20
31677;DHT22;18385;51.572;6.578;2022-08-03T16:01:32;47.70;20.00
31677;DHT22;18385;51.572;6.578;2022-08-03T16:03:58;48.30;19.60
31677;DHT22;18385;51.572;6.578;2022-08-03T16:06:23;48.80;19.30
31677;DHT22;18385;51.572;6.578;2022-08-03T16:08:49;49.00;19.10
31677;DHT22;18385;51.572;6.578;2022-08-03T16:11:15;49.00;19.00
31677;DHT22;18385;51.572;6.578;2022-08-03T16:13:41;49.20;19.00
31677;DHT22;18385;51.572;6.578;2022-08-03T16:16:06;49.20;18.90